sensor_id;sensor_type;location;lat;lon;timestamp;temperature;humidity
68276;DHT22;55106;51.438;-0.098;2022-10-31T00:00:13;12.12;99.99
68276;DHT22;55106;51.438;-0.098;2022-10-31T00:02:38;12.13;99.99
68276;DHT22;55106;51.438;-0.098;2022-10-31T00:05:04;12.25;99.99
68276;DHT22;55106;51.438;-0.098;2022-10-31T00:07:29;12.32;99.99
68276;DHT22;55106;51.438;-0.098;2022-10-31T00:09:54;12.44;99.99
68276;DHT22;55106;51.438;-0.098;2022-10-31T00:12:20;12.30;99.99
68276;DHT22;55106;51.438;-0.098;2022-10-31T00:14:45;12.29;99.99
68276;DHT22;55106;51.438;-0.098;2022-10-31T00:17:10;12.26;99.99
68276;DHT22;55106;51.438;-0.098;2022-10-31T00:19:36;12.25;99.99
68276;DHT22;55106;51.438;-0.098;2022-10-31T00:22:01;12.12;99.99
68276;DHT22;55106;51.438;-0.098;2022-10-31T00:24:27;12.12;99.99
68276;DHT22;55106;51.438;-0.098;2022-10-31T00:26:52;12.15;99.99
68276;DHT22;55106;51.438;-0.098;2022-10-31T00:29:17;12.06;99.99
68276;DHT22;55106;51.438;-0.098;2022-10-31T00:31:43;12.05;99.99
68276;DHT22;55106;51.438;-0.098;2022-10-31T00:34:08;11.99;99.99
68276;DHT22;55106;51.438;-0.098;2022-10-31T00:36:33;12.08;99.99
68276;DHT22;55106;51.438;-0.098;2022-10-31T00:38:59;12.26;99.99
68276;DHT22;55106;51.438;-0.098;2022-10-31T00:41:24;12.03;99.99
68276;DHT22;55106;51.438;-0.098;2022-10-31T00:43:50;12.03;99.99
68276;DHT22;55106;51.438;-0.098;2022-10-31T00:46:16;11.98;99.99
68276;DHT22;55106;51.438;-0.098;2022-10-31T00:48:42;11.82;99.99
68276;DHT22;55106;51.438;-0.098;2022-10-31T00:51:07;11.71;99.99
68276;DHT22;55106;51.438;-0.098;2022-10-31T00:53:33;11.64;99.99
68276;DHT22;55106;51.438;-0.098;2022-10-31T00:55:58;11.79;99.99
68276;DHT22;55106;51.438;-0.098;2022-10-31T00:58:23;11.85;99.99
68276;DHT22;55106;51.438;-0.098;2022-10-31T01:00:49;11.93;99.99
68276;DHT22;55106;51.438;-0.098;2022-10-31T01:03:24;12.06;99.99
68276;DHT22;55106;51.438;-0.098;2022-10-31T01:05:58;12.06;99.99
68276;DHT22;55106;51.438;-0.098;2022-10-31T01:08:24;12.20;99.99
68276;DHT22;55106;51.438;-0.098;2022-10-31T01:11:22;12.25;99.99
68276;DHT22;55106;51.438;-0.098;2022-10-31T01:13:50;12.09;99.99
68276;DHT22;55106;51.438;-0.098;2022-10-31T01:16:18;12.06;99.99
68276;DHT22;55106;51.438;-0.098;2022-10-31T01:18:43;12.00;99.99
68276;DHT22;55106;51.438;-0.098;2022-10-31T01:21:09;12.02;99.99
68276;DHT22;55106;51.438;-0.098;2022-10-31T01:23:36;12.08;99.99
68276;DHT22;55106;51.438;-0.098;2022-10-31T01:28:30;12.05;99.99
68276;DHT22;55106;51.438;-0.098;2022-10-31T01:31:00;11.99;99.99
68276;DHT22;55106;51.438;-0.098;2022-10-31T01:33:25;11.98;99.99
68276;DHT22;55106;51.438;-0.098;2022-10-31T01:35:50;12.06;99.99
68276;DHT22;55106;51.438;-0.098;2022-10-31T01:38:16;12.09;99.99
68276;DHT22;55106;51.438;-0.098;2022-10-31T01:40:41;12.19;99.99
68276;DHT22;55106;51.438;-0.098;2022-10-31T01:43:12;12.30;99.99
68276;DHT22;55106;51.438;-0.098;2022-10-31T01:45:37;12.29;99.99
68276;DHT22;55106;51.438;-0.098;2022-10-31T01:48:03;12.25;99.99
68276;DHT22;55106;51.438;-0.098;2022-10-31T01:50:33;12.22;99.99
68276;DHT22;55106;51.438;-0.098;2022-10-31T01:53:01;12.16;99.99
68276;DHT22;55106;51.438;-0.098;2022-10-31T01:55:32;12.15;99.99
68276;DHT22;55106;51.438;-0.098;2022-10-31T01:58:13;12.13;99.99
68276;DHT22;55106;51.438;-0.098;2022-10-31T02:00:39;12.13;99.99
68276;DHT22;55106;51.438;-0.098;2022-10-31T02:03:05;12.26;99.99
68276;DHT22;55106;51.438;-0.098;2022-10-31T02:05:31;12.36;99.99
68276;DHT22;55106;51.438;-0.098;2022-10-31T02:08:01;12.33;99.99
68276;DHT22;55106;51.438;-0.098;2022-10-31T02:10:29;12.25;99.99
68276;DHT22;55106;51.438;-0.098;2022-10-31T02:12:57;12.20;99.99
68276;DHT22;55106;51.438;-0.098;2022-10-31T02:15:23;12.26;99.99
68276;DHT22;55106;51.438;-0.098;2022-10-31T02:17:49;12.37;99.99
68276;DHT22;55106;51.438;-0.098;2022-10-31T02:20:17;12.50;99.99
68276;DHT22;55106;51.438;-0.098;2022-10-31T02:33:43;12.29;99.99
68276;DHT22;55106;51.438;-0.098;2022-10-31T02:46:49;11.93;99.99
68276;DHT22;55106;51.438;-0.098;2022-10-31T02:49:24;11.78;99.99
68276;DHT22;55106;51.438;-0.098;2022-10-31T02:51:51;11.70;99.99
68276;DHT22;55106;51.438;-0.098;2022-10-31T02:54:23;11.58;99.99
68276;DHT22;55106;51.438;-0.098;2022-10-31T02:56:51;11.52;99.99
68276;DHT22;55106;51.438;-0.098;2022-10-31T02:59:17;11.45;99.99
68276;DHT22;55106;51.438;-0.098;2022-10-31T03:02:06;11.37;99.99
68276;DHT22;55106;51.438;-0.098;2022-10-31T03:04:46;11.41;99.99
68276;DHT22;55106;51.438;-0.098;2022-10-31T03:10:04;11.40;99.99
68276;DHT22;55106;51.438;-0.098;2022-10-31T03:12:35;11.44;99.99
68276;DHT22;55106;51.438;-0.098;2022-10-31T03:17:45;11.68;99.99
68276;DHT22;55106;51.438;-0.098;2022-10-31T03:20:13;11.85;99.99
68276;DHT22;55106;51.438;-0.098;2022-10-31T03:22:40;11.82;99.99
68276;DHT22;55106;51.438;-0.098;2022-10-31T03:25:07;11.89;99.99
68276;DHT22;55106;51.438;-0.098;2022-10-31T03:27:35;11.83;99.99
68276;DHT22;55106;51.438;-0.098;2022-10-31T03:30:04;12.02;99.99
68276;DHT22;55106;51.438;-0.098;2022-10-31T03:32:44;11.98;99.99
68276;DHT22;55106;51.438;-0.098;2022-10-31T03:35:13;11.99;99.99
68276;DHT22;55106;51.438;-0.098;2022-10-31T03:37:40;12.03;99.99
68276;DHT22;55106;51.438;-0.098;2022-10-31T03:40:07;12.09;99.99
68276;DHT22;55106;51.438;-0.098;2022-10-31T03:42:38;12.23;99.99
68276;DHT22;55106;51.438;-0.098;2022-10-31T03:45:32;12.20;99.99
68276;DHT22;55106;51.438;-0.098;2022-10-31T03:48:00;12.12;99.99
68276;DHT22;55106;51.438;-0.098;2022-10-31T03:50:35;12.09;99.99
68276;DHT22;55106;51.438;-0.098;2022-10-31T03:53:16;12.05;99.99
68276;DHT22;55106;51.438;-0.098;2022-10-31T03:56:11;12.19;99.99
68276;DHT22;55106;51.438;-0.098;2022-10-31T03:58:55;12.22;99.99
68276;DHT22;55106;51.438;-0.098;2022-10-31T04:01:23;12.33;99.99
68276;DHT22;55106;51.438;-0.098;2022-10-31T04:03:51;12.26;99.99
68276;DHT22;55106;51.438;-0.098;2022-10-31T04:06:18;12.18;99.99
68276;DHT22;55106;51.438;-0.098;2022-10-31T04:08:49;12.22;99.99
68276;DHT22;55106;51.438;-0.098;2022-10-31T04:11:18;12.13;99.99
68276;DHT22;55106;51.438;-0.098;2022-10-31T04:13:47;12.13;99.99
68276;DHT22;55106;51.438;-0.098;2022-10-31T04:16:14;12.02;99.99
68276;DHT22;55106;51.438;-0.098;2022-10-31T04:18:40;11.93;99.99
68276;DHT22;55106;51.438;-0.098;2022-10-31T04:21:07;11.81;99.99
68276;DHT22;55106;51.438;-0.098;2022-10-31T04:23:34;11.92;99.99
68276;DHT22;55106;51.438;-0.098;2022-10-31T04:26:00;11.93;99.99
68276;DHT22;55106;51.438;-0.098;2022-10-31T04:28:26;11.86;99.99
68276;DHT22;55106;51.438;-0.098;2022-10-31T04:30:51;11.85;99.99
68276;DHT22;55106;51.438;-0.098;2022-10-31T04:33:17;12.02;99.99
68276;DHT22;55106;51.438;-0.098;2022-10-31T04:35:42;12.09;99.99
68276;DHT22;55106;51.438;-0.098;2022-10-31T04:38:08;12.05;99.99
68276;DHT22;55106;51.438;-0.098;2022-10-31T04:40:33;12.09;99.99
68276;DHT22;55106;51.438;-0.098;2022-10-31T04:42:58;11.99;99.99
68276;DHT22;55106;51.438;-0.098;2022-10-31T04:45:24;11.99;99.99
68276;DHT22;55106;51.438;-0.098;2022-10-31T04:47:49;11.92;99.99
68276;DHT22;55106;51.438;-0.098;2022-10-31T04:50:14;12.22;99.99
68276;DHT22;55106;51.438;-0.098;2022-10-31T04:52:44;12.08;99.99
68276;DHT22;55106;51.438;-0.098;2022-10-31T04:55:10;11.91;99.99
68276;DHT22;55106;51.438;-0.098;2022-10-31T04:57:47;11.91;99.99
68276;DHT22;55106;51.438;-0.098;2022-10-31T05:00:15;11.95;99.99
68276;DHT22;55106;51.438;-0.098;2022-10-31T05:02:55;12.05;99.99
68276;DHT22;55106;51.438;-0.098;2022-10-31T05:05:23;12.10;99.99
68276;DHT22;55106;51.438;-0.098;2022-10-31T05:07:49;12.15;99.99
68276;DHT22;55106;51.438;-0.098;2022-10-31T05:10:18;12.16;99.99
68276;DHT22;55106;51.438;-0.098;2022-10-31T05:12:48;12.06;99.99
68276;DHT22;55106;51.438;-0.098;2022-10-31T05:15:14;11.99;99.99
68276;DHT22;55106;51.438;-0.098;2022-10-31T05:17:40;12.10;99.99
68276;DHT22;55106;51.438;-0.098;2022-10-31T05:20:06;12.12;99.99
68276;DHT22;55106;51.438;-0.098;2022-10-31T05:22:31;12.09;99.99
68276;DHT22;55106;51.438;-0.098;2022-10-31T05:24:56;12.16;99.99
68276;DHT22;55106;51.438;-0.098;2022-10-31T05:27:22;12.16;99.99
68276;DHT22;55106;51.438;-0.098;2022-10-31T05:29:47;12.10;99.99
68276;DHT22;55106;51.438;-0.098;2022-10-31T05:32:13;12.05;99.99
68276;DHT22;55106;51.438;-0.098;2022-10-31T05:34:38;12.09;99.99
68276;DHT22;55106;51.438;-0.098;2022-10-31T05:37:03;12.08;99.99
68276;DHT22;55106;51.438;-0.098;2022-10-31T05:39:29;12.12;99.99
68276;DHT22;55106;51.438;-0.098;2022-10-31T05:41:54;12.18;99.99
68276;DHT22;55106;51.438;-0.098;2022-10-31T05:44:19;12.15;99.99
68276;DHT22;55106;51.438;-0.098;2022-10-31T05:46:46;12.06;99.99
68276;DHT22;55106;51.438;-0.098;2022-10-31T05:49:12;12.06;99.99
68276;DHT22;55106;51.438;-0.098;2022-10-31T05:51:37;12.03;99.99
68276;DHT22;55106;51.438;-0.098;2022-10-31T05:54:03;12.02;99.99
68276;DHT22;55106;51.438;-0.098;2022-10-31T05:56:28;12.00;99.99
68276;DHT22;55106;51.438;-0.098;2022-10-31T05:58:54;12.03;99.99
68276;DHT22;55106;51.438;-0.098;2022-10-31T06:01:19;12.03;99.99
68276;DHT22;55106;51.438;-0.098;2022-10-31T06:03:44;12.03;99.99
68276;DHT22;55106;51.438;-0.098;2022-10-31T06:06:10;12.05;99.99
68276;DHT22;55106;51.438;-0.098;2022-10-31T06:08:36;11.96;99.99
68276;DHT22;55106;51.438;-0.098;2022-10-31T06:11:01;11.88;99.99
68276;DHT22;55106;51.438;-0.098;2022-10-31T06:13:27;11.79;99.99
68276;DHT22;55106;51.438;-0.098;2022-10-31T06:15:52;11.78;99.99
68276;DHT22;55106;51.438;-0.098;2022-10-31T06:18:17;11.81;99.99
68276;DHT22;55106;51.438;-0.098;2022-10-31T06:20:43;11.92;99.99
68276;DHT22;55106;51.438;-0.098;2022-10-31T06:23:08;11.91;99.99
68276;DHT22;55106;51.438;-0.098;2022-10-31T06:25:33;11.85;99.99
68276;DHT22;55106;51.438;-0.098;2022-10-31T06:27:59;11.92;99.99
68276;DHT22;55106;51.438;-0.098;2022-10-31T06:30:24;11.89;99.99
68276;DHT22;55106;51.438;-0.098;2022-10-31T06:32:50;12.03;99.99
68276;DHT22;55106;51.438;-0.098;2022-10-31T06:35:15;12.02;99.99
68276;DHT22;55106;51.438;-0.098;2022-10-31T06:37:40;11.98;99.99
68276;DHT22;55106;51.438;-0.098;2022-10-31T06:40:06;11.89;99.99
68276;DHT22;55106;51.438;-0.098;2022-10-31T06:42:32;11.83;99.99
68276;DHT22;55106;51.438;-0.098;2022-10-31T06:44:57;11.83;99.99
68276;DHT22;55106;51.438;-0.098;2022-10-31T06:47:22;11.71;99.99
68276;DHT22;55106;51.438;-0.098;2022-10-31T06:49:48;11.82;99.99
68276;DHT22;55106;51.438;-0.098;2022-10-31T06:52:13;11.74;99.99
68276;DHT22;55106;51.438;-0.098;2022-10-31T06:54:38;11.72;99.99
68276;DHT22;55106;51.438;-0.098;2022-10-31T06:57:04;11.61;99.99
68276;DHT22;55106;51.438;-0.098;2022-10-31T06:59:29;11.57;99.99
68276;DHT22;55106;51.438;-0.098;2022-10-31T07:01:54;11.58;99.99
68276;DHT22;55106;51.438;-0.098;2022-10-31T07:04:20;11.65;99.99
68276;DHT22;55106;51.438;-0.098;2022-10-31T07:06:45;11.61;99.99
68276;DHT22;55106;51.438;-0.098;2022-10-31T07:09:11;11.54;99.99
68276;DHT22;55106;51.438;-0.098;2022-10-31T07:11:36;11.45;99.99
68276;DHT22;55106;51.438;-0.098;2022-10-31T07:14:01;11.35;99.99
68276;DHT22;55106;51.438;-0.098;2022-10-31T07:16:27;11.37;99.99
68276;DHT22;55106;51.438;-0.098;2022-10-31T07:18:52;11.37;99.99
68276;DHT22;55106;51.438;-0.098;2022-10-31T07:21:17;11.38;99.99
68276;DHT22;55106;51.438;-0.098;2022-10-31T07:23:43;11.47;99.99
68276;DHT22;55106;51.438;-0.098;2022-10-31T07:26:09;11.60;99.99
68276;DHT22;55106;51.438;-0.098;2022-10-31T07:28:35;11.55;99.99
68276;DHT22;55106;51.438;-0.098;2022-10-31T07:31:00;11.54;99.99
68276;DHT22;55106;51.438;-0.098;2022-10-31T07:33:26;11.55;99.99
68276;DHT22;55106;51.438;-0.098;2022-10-31T07:35:52;11.64;99.99
68276;DHT22;55106;51.438;-0.098;2022-10-31T07:38:17;11.83;99.99
68276;DHT22;55106;51.438;-0.098;2022-10-31T07:40:42;11.96;99.99
68276;DHT22;55106;51.438;-0.098;2022-10-31T07:43:10;12.12;99.99
68276;DHT22;55106;51.438;-0.098;2022-10-31T07:45:36;12.27;99.99
68276;DHT22;55106;51.438;-0.098;2022-10-31T07:48:01;12.47;99.99
68276;DHT22;55106;51.438;-0.098;2022-10-31T07:50:29;12.60;99.99
68276;DHT22;55106;51.438;-0.098;2022-10-31T07:53:04;12.75;99.99
68276;DHT22;55106;51.438;-0.098;2022-10-31T07:55:29;12.81;99.99
68276;DHT22;55106;51.438;-0.098;2022-10-31T07:57:59;12.92;99.99
68276;DHT22;55106;51.438;-0.098;2022-10-31T08:00:25;13.33;99.42
68276;DHT22;55106;51.438;-0.098;2022-10-31T08:03:17;13.67;99.18
68276;DHT22;55106;51.438;-0.098;2022-10-31T08:05:43;13.70;98.97
68276;DHT22;55106;51.438;-0.098;2022-10-31T08:08:11;13.90;97.58
68276;DHT22;55106;51.438;-0.098;2022-10-31T08:10:37;13.92;97.90
68276;DHT22;55106;51.438;-0.098;2022-10-31T08:13:07;13.74;97.56
68276;DHT22;55106;51.438;-0.098;2022-10-31T08:15:33;13.73;97.46
68276;DHT22;55106;51.438;-0.098;2022-10-31T08:18:02;13.67;98.35
68276;DHT22;55106;51.438;-0.098;2022-10-31T08:20:27;13.54;98.54
68276;DHT22;55106;51.438;-0.098;2022-10-31T08:23:04;13.66;98.77
68276;DHT22;55106;51.438;-0.098;2022-10-31T08:25:31;13.94;98.44
68276;DHT22;55106;51.438;-0.098;2022-10-31T08:27:57;14.08;98.52
68276;DHT22;55106;51.438;-0.098;2022-10-31T08:30:25;14.12;97.85
68276;DHT22;55106;51.438;-0.098;2022-10-31T08:33:06;14.26;97.94
68276;DHT22;55106;51.438;-0.098;2022-10-31T08:35:44;14.59;97.00
68276;DHT22;55106;51.438;-0.098;2022-10-31T08:38:12;14.80;94.97
68276;DHT22;55106;51.438;-0.098;2022-10-31T08:40:42;14.80;95.77
68276;DHT22;55106;51.438;-0.098;2022-10-31T08:46:21;15.27;93.42
68276;DHT22;55106;51.438;-0.098;2022-10-31T08:48:49;15.83;94.42
68276;DHT22;55106;51.438;-0.098;2022-10-31T08:51:14;16.16;91.65
68276;DHT22;55106;51.438;-0.098;2022-10-31T08:53:40;16.59;89.03
68276;DHT22;55106;51.438;-0.098;2022-10-31T08:56:05;17.09;89.61
68276;DHT22;55106;51.438;-0.098;2022-10-31T08:58:31;17.53;85.83
68276;DHT22;55106;51.438;-0.098;2022-10-31T09:00:59;17.88;84.57
68276;DHT22;55106;51.438;-0.098;2022-10-31T09:03:26;17.95;83.48
68276;DHT22;55106;51.438;-0.098;2022-10-31T09:05:56;17.91;83.39
68276;DHT22;55106;51.438;-0.098;2022-10-31T09:08:23;18.36;82.88
68276;DHT22;55106;51.438;-0.098;2022-10-31T09:10:48;18.85;81.70
68276;DHT22;55106;51.438;-0.098;2022-10-31T09:13:19;19.09;80.88
68276;DHT22;55106;51.438;-0.098;2022-10-31T09:15:46;19.30;79.99
68276;DHT22;55106;51.438;-0.098;2022-10-31T09:18:13;18.91;79.28
68276;DHT22;55106;51.438;-0.098;2022-10-31T09:20:40;18.89;80.18
68276;DHT22;55106;51.438;-0.098;2022-10-31T09:23:18;19.53;79.26
68276;DHT22;55106;51.438;-0.098;2022-10-31T09:25:44;18.49;79.20
68276;DHT22;55106;51.438;-0.098;2022-10-31T09:28:13;18.56;79.89
68276;DHT22;55106;51.438;-0.098;2022-10-31T09:30:39;18.67;78.30
68276;DHT22;55106;51.438;-0.098;2022-10-31T09:33:08;19.52;78.46
68276;DHT22;55106;51.438;-0.098;2022-10-31T09:35:34;19.84;75.81
68276;DHT22;55106;51.438;-0.098;2022-10-31T09:38:05;19.63;77.22
68276;DHT22;55106;51.438;-0.098;2022-10-31T09:40:42;18.46;77.92
68276;DHT22;55106;51.438;-0.098;2022-10-31T09:46:08;18.54;79.39
68276;DHT22;55106;51.438;-0.098;2022-10-31T09:51:18;17.55;82.23
68276;DHT22;55106;51.438;-0.098;2022-10-31T09:53:54;18.43;79.86
68276;DHT22;55106;51.438;-0.098;2022-10-31T09:56:21;17.75;81.39
68276;DHT22;55106;51.438;-0.098;2022-10-31T09:58:54;17.03;83.78
68276;DHT22;55106;51.438;-0.098;2022-10-31T10:06:49;16.58;84.92
68276;DHT22;55106;51.438;-0.098;2022-10-31T10:09:15;16.51;86.15
68276;DHT22;55106;51.438;-0.098;2022-10-31T10:14:51;16.72;84.61
68276;DHT22;55106;51.438;-0.098;2022-10-31T10:25:23;16.51;86.10
68276;DHT22;55106;51.438;-0.098;2022-10-31T10:28:17;16.96;83.97
68276;DHT22;55106;51.438;-0.098;2022-10-31T10:30:48;16.68;84.19
68276;DHT22;55106;51.438;-0.098;2022-10-31T10:33:26;17.10;83.54
68276;DHT22;55106;51.438;-0.098;2022-10-31T10:35:57;17.26;83.19
68276;DHT22;55106;51.438;-0.098;2022-10-31T10:41:17;17.03;82.52
68276;DHT22;55106;51.438;-0.098;2022-10-31T10:43:43;16.99;82.12
68276;DHT22;55106;51.438;-0.098;2022-10-31T10:46:38;16.89;82.91
68276;DHT22;55106;51.438;-0.098;2022-10-31T10:52:05;17.17;82.52
68276;DHT22;55106;51.438;-0.098;2022-10-31T11:02:46;17.24;82.09
68276;DHT22;55106;51.438;-0.098;2022-10-31T11:05:37;17.07;82.16
68276;DHT22;55106;51.438;-0.098;2022-10-31T11:08:04;16.96;82.92
68276;DHT22;55106;51.438;-0.098;2022-10-31T11:10:30;16.79;82.40
68276;DHT22;55106;51.438;-0.098;2022-10-31T11:15:53;16.93;81.33
68276;DHT22;55106;51.438;-0.098;2022-10-31T11:18:22;17.05;81.40
68276;DHT22;55106;51.438;-0.098;2022-10-31T11:20:55;16.80;82.10
68276;DHT22;55106;51.438;-0.098;2022-10-31T11:23:22;16.57;82.91
68276;DHT22;55106;51.438;-0.098;2022-10-31T11:26:02;16.42;82.94
68276;DHT22;55106;51.438;-0.098;2022-10-31T11:28:29;16.47;83.70
68276;DHT22;55106;51.438;-0.098;2022-10-31T11:30:58;16.50;83.05
68276;DHT22;55106;51.438;-0.098;2022-10-31T11:33:34;16.58;83.16
68276;DHT22;55106;51.438;-0.098;2022-10-31T11:36:02;16.67;82.22
68276;DHT22;55106;51.438;-0.098;2022-10-31T11:38:40;16.67;81.64
68276;DHT22;55106;51.438;-0.098;2022-10-31T11:41:33;16.72;81.32
68276;DHT22;55106;51.438;-0.098;2022-10-31T11:44:17;16.75;79.15
68276;DHT22;55106;51.438;-0.098;2022-10-31T11:46:50;16.78;79.90
68276;DHT22;55106;51.438;-0.098;2022-10-31T11:51:48;16.59;80.35
68276;DHT22;55106;51.438;-0.098;2022-10-31T11:54:22;16.51;80.32
68276;DHT22;55106;51.438;-0.098;2022-10-31T11:56:48;16.40;80.19
68276;DHT22;55106;51.438;-0.098;2022-10-31T11:59:32;16.45;80.28
68276;DHT22;55106;51.438;-0.098;2022-10-31T12:01:59;16.42;80.32
68276;DHT22;55106;51.438;-0.098;2022-10-31T12:04:37;16.51;80.07
68276;DHT22;55106;51.438;-0.098;2022-10-31T12:07:04;16.57;79.57
68276;DHT22;55106;51.438;-0.098;2022-10-31T12:09:33;16.61;80.26
68276;DHT22;55106;51.438;-0.098;2022-10-31T12:12:18;16.67;79.96
68276;DHT22;55106;51.438;-0.098;2022-10-31T12:20:20;16.71;80.03
68276;DHT22;55106;51.438;-0.098;2022-10-31T17:35:51;14.05;97.24
68276;DHT22;55106;51.438;-0.098;2022-10-31T17:38:16;14.05;97.04
68276;DHT22;55106;51.438;-0.098;2022-10-31T17:40:42;14.07;96.79
68276;DHT22;55106;51.438;-0.098;2022-10-31T17:43:08;14.05;97.25
68276;DHT22;55106;51.438;-0.098;2022-10-31T17:45:34;14.01;98.35
68276;DHT22;55106;51.438;-0.098;2022-10-31T17:47:59;14.04;98.55
68276;DHT22;55106;51.438;-0.098;2022-10-31T17:50:25;14.01;99.10
68276;DHT22;55106;51.438;-0.098;2022-10-31T17:52:51;14.07;98.64
68276;DHT22;55106;51.438;-0.098;2022-10-31T17:55:17;14.08;99.02
68276;DHT22;55106;51.438;-0.098;2022-10-31T17:57:43;14.08;99.17
68276;DHT22;55106;51.438;-0.098;2022-10-31T18:00:12;14.11;98.98
68276;DHT22;55106;51.438;-0.098;2022-10-31T18:02:38;14.07;99.47
68276;DHT22;55106;51.438;-0.098;2022-10-31T18:05:07;14.08;99.25
68276;DHT22;55106;51.438;-0.098;2022-10-31T18:07:32;14.07;99.44
68276;DHT22;55106;51.438;-0.098;2022-10-31T18:09:58;14.10;99.32
68276;DHT22;55106;51.438;-0.098;2022-10-31T18:12:24;14.17;98.84
68276;DHT22;55106;51.438;-0.098;2022-10-31T18:14:51;14.17;99.12
68276;DHT22;55106;51.438;-0.098;2022-10-31T18:17:17;14.18;99.04
68276;DHT22;55106;51.438;-0.098;2022-10-31T18:19:42;14.22;98.81
68276;DHT22;55106;51.438;-0.098;2022-10-31T18:22:08;14.22;99.09
68276;DHT22;55106;51.438;-0.098;2022-10-31T18:24:33;14.19;99.15
68276;DHT22;55106;51.438;-0.098;2022-10-31T18:26:59;14.17;99.29
68276;DHT22;55106;51.438;-0.098;2022-10-31T18:29:24;14.24;99.25
68276;DHT22;55106;51.438;-0.098;2022-10-31T18:31:49;14.31;98.93
68276;DHT22;55106;51.438;-0.098;2022-10-31T18:36:42;14.38;98.95
68276;DHT22;55106;51.438;-0.098;2022-10-31T19:54:26;15.06;99.60
68276;DHT22;55106;51.438;-0.098;2022-10-31T20:04:07;15.15;99.60
68276;DHT22;55106;51.438;-0.098;2022-10-31T20:13:58;15.36;98.86
68276;DHT22;55106;51.438;-0.098;2022-10-31T20:28:41;15.46;97.89
68276;DHT22;55106;51.438;-0.098;2022-10-31T20:31:09;15.45;98.20
68276;DHT22;55106;51.438;-0.098;2022-10-31T20:33:37;15.48;98.19
68276;DHT22;55106;51.438;-0.098;2022-10-31T20:36:04;15.44;98.46
68276;DHT22;55106;51.438;-0.098;2022-10-31T20:38:30;15.44;98.00
68276;DHT22;55106;51.438;-0.098;2022-10-31T20:41:00;15.39;97.03
68276;DHT22;55106;51.438;-0.098;2022-10-31T20:43:26;15.42;95.53
68276;DHT22;55106;51.438;-0.098;2022-10-31T20:46:02;15.36;94.25
68276;DHT22;55106;51.438;-0.098;2022-10-31T20:48:29;15.34;94.16
68276;DHT22;55106;51.438;-0.098;2022-10-31T20:51:06;15.34;93.87
68276;DHT22;55106;51.438;-0.098;2022-10-31T20:53:32;15.24;94.02
68276;DHT22;55106;51.438;-0.098;2022-10-31T20:55:59;15.23;94.13
68276;DHT22;55106;51.438;-0.098;2022-10-31T20:58:25;15.20;94.96
68276;DHT22;55106;51.438;-0.098;2022-10-31T21:00:50;15.20;95.25
68276;DHT22;55106;51.438;-0.098;2022-10-31T21:03:15;15.20;95.46
68276;DHT22;55106;51.438;-0.098;2022-10-31T21:05:41;15.14;96.10
68276;DHT22;55106;51.438;-0.098;2022-10-31T21:08:06;15.23;95.25
68276;DHT22;55106;51.438;-0.098;2022-10-31T21:10:31;15.23;95.87
68276;DHT22;55106;51.438;-0.098;2022-10-31T21:12:57;15.21;95.91
68276;DHT22;55106;51.438;-0.098;2022-10-31T21:17:48;15.15;96.26
68276;DHT22;55106;51.438;-0.098;2022-10-31T23:09:39;14.28;98.99
68276;DHT22;55106;51.438;-0.098;2022-10-31T23:12:05;14.21;99.39
68276;DHT22;55106;51.438;-0.098;2022-10-31T23:14:49;14.08;98.17
68276;DHT22;55106;51.438;-0.098;2022-10-31T23:17:14;13.91;98.68
68276;DHT22;55106;51.438;-0.098;2022-10-31T23:19:44;13.80;98.51
68276;DHT22;55106;51.438;-0.098;2022-10-31T23:22:10;13.70;98.38
68276;DHT22;55106;51.438;-0.098;2022-10-31T23:27:24;13.60;98.32
68276;DHT22;55106;51.438;-0.098;2022-10-31T23:29:54;13.52;98.69
68276;DHT22;55106;51.438;-0.098;2022-10-31T23:32:28;13.49;98.63
68276;DHT22;55106;51.438;-0.098;2022-10-31T23:35:02;13.39;97.86
68276;DHT22;55106;51.438;-0.098;2022-10-31T23:37:32;13.23;98.23
68276;DHT22;55106;51.438;-0.098;2022-10-31T23:39:58;13.26;97.55
68276;DHT22;55106;51.438;-0.098;2022-10-31T23:42:25;13.26;97.92
68276;DHT22;55106;51.438;-0.098;2022-10-31T23:44:51;13.25;97.62
68276;DHT22;55106;51.438;-0.098;2022-10-31T23:47:17;13.22;98.10
68276;DHT22;55106;51.438;-0.098;2022-10-31T23:49:43;13.11;97.74
68276;DHT22;55106;51.438;-0.098;2022-10-31T23:52:09;13.08;97.56
68276;DHT22;55106;51.438;-0.098;2022-10-31T23:54:34;13.12;97.41
68276;DHT22;55106;51.438;-0.098;2022-10-31T23:57:00;13.05;95.95
68276;DHT22;55106;51.438;-0.098;2022-10-31T23:59:26;12.88;94.63
